sensor_id;sensor_type;location;lat;lon;timestamp;temperature;humidity
37002;DHT22;22913;51.910;8.374;2023-06-26T00:00:20;23.80;99.90
37002;DHT22;22913;51.910;8.374;2023-06-26T00:03:05;23.80;99.90
37002;DHT22;22913;51.910;8.374;2023-06-26T00:05:51;23.80;99.90
37002;DHT22;22913;51.910;8.374;2023-06-26T00:08:39;23.70;99.90
37002;DHT22;22913;51.910;8.374;2023-06-26T00:11:24;23.60;99.90
37002;DHT22;22913;51.910;8.374;2023-06-26T00:14:11;23.50;99.90
37002;DHT22;22913;51.910;8.374;2023-06-26T00:16:57;23.50;99.90
37002;DHT22;22913;51.910;8.374;2023-06-26T00:19:43;23.50;99.90
37002;DHT22;22913;51.910;8.374;2023-06-26T00:22:29;23.40;99.90
37002;DHT22;22913;51.910;8.374;2023-06-26T00:25:16;23.40;99.90
37002;DHT22;22913;51.910;8.374;2023-06-26T00:28:02;23.40;99.90
37002;DHT22;22913;51.910;8.374;2023-06-26T00:30:48;23.30;99.90
37002;DHT22;22913;51.910;8.374;2023-06-26T00:33:34;23.30;99.90
37002;DHT22;22913;51.910;8.374;2023-06-26T00:36:19;23.20;99.90
37002;DHT22;22913;51.910;8.374;2023-06-26T00:39:07;23.10;99.90
37002;DHT22;22913;51.910;8.374;2023-06-26T00:41:54;23.10;99.90
37002;DHT22;22913;51.910;8.374;2023-06-26T00:44:39;23.10;99.90
37002;DHT22;22913;51.910;8.374;2023-06-26T00:47:25;23.10;99.90
37002;DHT22;22913;51.910;8.374;2023-06-26T00:50:11;23.10;99.90
37002;DHT22;22913;51.910;8.374;2023-06-26T00:52:57;23.10;99.90
37002;DHT22;22913;51.910;8.374;2023-06-26T00:55:44;23.00;99.90
37002;DHT22;22913;51.910;8.374;2023-06-26T00:58:32;23.00;99.90
37002;DHT22;22913;51.910;8.374;2023-06-26T01:01:17;22.90;99.90
37002;DHT22;22913;51.910;8.374;2023-06-26T01:04:05;22.90;99.90
37002;DHT22;22913;51.910;8.374;2023-06-26T01:06:51;22.90;99.90
37002;DHT22;22913;51.910;8.374;2023-06-26T01:09:37;22.90;99.90
37002;DHT22;22913;51.910;8.374;2023-06-26T01:12:22;22.70;99.90
37002;DHT22;22913;51.910;8.374;2023-06-26T01:15:10;22.70;99.90
37002;DHT22;22913;51.910;8.374;2023-06-26T01:17:57;22.60;99.90
37002;DHT22;22913;51.910;8.374;2023-06-26T01:20:44;22.60;99.90
37002;DHT22;22913;51.910;8.374;2023-06-26T01:23:35;22.60;99.90
37002;DHT22;22913;51.910;8.374;2023-06-26T01:26:26;22.50;99.90
37002;DHT22;22913;51.910;8.374;2023-06-26T01:29:13;22.40;99.90
37002;DHT22;22913;51.910;8.374;2023-06-26T01:32:01;22.50;99.90
37002;DHT22;22913;51.910;8.374;2023-06-26T01:34:46;22.40;99.90
37002;DHT22;22913;51.910;8.374;2023-06-26T01:37:32;22.40;99.90
37002;DHT22;22913;51.910;8.374;2023-06-26T01:40:18;22.40;99.90
37002;DHT22;22913;51.910;8.374;2023-06-26T01:43:06;22.40;99.90
37002;DHT22;22913;51.910;8.374;2023-06-26T01:45:54;22.40;99.90
37002;DHT22;22913;51.910;8.374;2023-06-26T01:48:50;22.30;99.90
37002;DHT22;22913;51.910;8.374;2023-06-26T01:51:41;22.30;99.90
37002;DHT22;22913;51.910;8.374;2023-06-26T01:54:30;22.20;99.90
37002;DHT22;22913;51.910;8.374;2023-06-26T01:57:18;22.20;99.90
37002;DHT22;22913;51.910;8.374;2023-06-26T02:00:09;22.10;99.90
37002;DHT22;22913;51.910;8.374;2023-06-26T02:02:56;22.00;99.90
37002;DHT22;22913;51.910;8.374;2023-06-26T02:05:42;22.00;99.90
37002;DHT22;22913;51.910;8.374;2023-06-26T02:08:28;22.00;99.90
37002;DHT22;22913;51.910;8.374;2023-06-26T02:11:14;22.00;99.90
37002;DHT22;22913;51.910;8.374;2023-06-26T02:13:59;22.00;99.90
37002;DHT22;22913;51.910;8.374;2023-06-26T02:16:47;22.00;99.90
37002;DHT22;22913;51.910;8.374;2023-06-26T02:19:32;22.00;99.90
37002;DHT22;22913;51.910;8.374;2023-06-26T02:22:18;22.00;99.90
37002;DHT22;22913;51.910;8.374;2023-06-26T02:25:04;22.00;99.90
37002;DHT22;22913;51.910;8.374;2023-06-26T02:27:50;22.00;99.90
37002;DHT22;22913;51.910;8.374;2023-06-26T02:30:36;22.00;99.90
37002;DHT22;22913;51.910;8.374;2023-06-26T02:33:23;22.00;99.90
37002;DHT22;22913;51.910;8.374;2023-06-26T02:36:08;21.90;99.90
37002;DHT22;22913;51.910;8.374;2023-06-26T02:38:54;21.90;99.90
37002;DHT22;22913;51.910;8.374;2023-06-26T02:41:39;21.80;99.90
37002;DHT22;22913;51.910;8.374;2023-06-26T02:44:25;21.80;99.90
37002;DHT22;22913;51.910;8.374;2023-06-26T02:47:11;21.80;99.90
37002;DHT22;22913;51.910;8.374;2023-06-26T02:49:58;21.80;99.90
37002;DHT22;22913;51.910;8.374;2023-06-26T02:52:43;21.70;99.90
37002;DHT22;22913;51.910;8.374;2023-06-26T02:55:29;21.80;99.90
37002;DHT22;22913;51.910;8.374;2023-06-26T02:58:14;21.70;99.90
37002;DHT22;22913;51.910;8.374;2023-06-26T03:01:00;21.70;99.90
37002;DHT22;22913;51.910;8.374;2023-06-26T03:03:46;21.80;99.90
37002;DHT22;22913;51.910;8.374;2023-06-26T03:06:33;21.70;99.90
37002;DHT22;22913;51.910;8.374;2023-06-26T03:09:19;21.70;99.90
37002;DHT22;22913;51.910;8.374;2023-06-26T03:12:05;21.70;99.90
37002;DHT22;22913;51.910;8.374;2023-06-26T03:14:51;21.70;99.90
37002;DHT22;22913;51.910;8.374;2023-06-26T03:17:37;21.80;99.90
37002;DHT22;22913;51.910;8.374;2023-06-26T03:20:23;21.70;99.90
37002;DHT22;22913;51.910;8.374;2023-06-26T03:23:10;21.70;99.90
37002;DHT22;22913;51.910;8.374;2023-06-26T03:25:56;21.60;99.90
37002;DHT22;22913;51.910;8.374;2023-06-26T03:28:42;21.50;99.90
37002;DHT22;22913;51.910;8.374;2023-06-26T03:31:28;21.60;99.90
37002;DHT22;22913;51.910;8.374;2023-06-26T03:34:13;21.50;99.90
37002;DHT22;22913;51.910;8.374;2023-06-26T03:36:59;21.40;99.90
37002;DHT22;22913;51.910;8.374;2023-06-26T03:39:48;21.40;99.90
37002;DHT22;22913;51.910;8.374;2023-06-26T03:42:33;21.50;99.90
37002;DHT22;22913;51.910;8.374;2023-06-26T03:45:19;21.50;99.90
37002;DHT22;22913;51.910;8.374;2023-06-26T03:48:05;21.60;99.90
37002;DHT22;22913;51.910;8.374;2023-06-26T03:50:52;21.50;99.90
37002;DHT22;22913;51.910;8.374;2023-06-26T03:53:38;21.40;99.90
37002;DHT22;22913;51.910;8.374;2023-06-26T03:56:25;21.50;99.90
37002;DHT22;22913;51.910;8.374;2023-06-26T03:59:10;21.40;99.90
37002;DHT22;22913;51.910;8.374;2023-06-26T04:01:56;21.50;99.90
37002;DHT22;22913;51.910;8.374;2023-06-26T04:04:42;21.50;99.90
37002;DHT22;22913;51.910;8.374;2023-06-26T04:07:28;21.50;99.90
37002;DHT22;22913;51.910;8.374;2023-06-26T04:10:13;21.60;99.90
37002;DHT22;22913;51.910;8.374;2023-06-26T04:13:00;21.60;99.90
37002;DHT22;22913;51.910;8.374;2023-06-26T04:15:46;21.70;99.90
37002;DHT22;22913;51.910;8.374;2023-06-26T04:18:32;21.60;99.90
37002;DHT22;22913;51.910;8.374;2023-06-26T04:21:18;21.50;99.90
37002;DHT22;22913;51.910;8.374;2023-06-26T04:24:05;21.60;99.90
37002;DHT22;22913;51.910;8.374;2023-06-26T04:26:51;21.70;99.90
37002;DHT22;22913;51.910;8.374;2023-06-26T04:29:38;21.70;99.90
37002;DHT22;22913;51.910;8.374;2023-06-26T04:32:23;21.80;99.90
37002;DHT22;22913;51.910;8.374;2023-06-26T04:35:09;21.80;99.90
37002;DHT22;22913;51.910;8.374;2023-06-26T04:37:55;21.80;99.90
37002;DHT22;22913;51.910;8.374;2023-06-26T04:40:41;21.80;99.90
37002;DHT22;22913;51.910;8.374;2023-06-26T04:43:27;21.90;99.90
37002;DHT22;22913;51.910;8.374;2023-06-26T04:46:15;21.80;99.90
37002;DHT22;22913;51.910;8.374;2023-06-26T04:49:00;21.90;99.90
37002;DHT22;22913;51.910;8.374;2023-06-26T04:51:47;21.80;99.90
37002;DHT22;22913;51.910;8.374;2023-06-26T04:54:35;21.90;99.90
37002;DHT22;22913;51.910;8.374;2023-06-26T04:57:20;22.00;99.90
37002;DHT22;22913;51.910;8.374;2023-06-26T05:00:07;21.90;99.90
37002;DHT22;22913;51.910;8.374;2023-06-26T05:02:56;22.00;99.90
37002;DHT22;22913;51.910;8.374;2023-06-26T05:05:45;22.00;99.90
37002;DHT22;22913;51.910;8.374;2023-06-26T05:08:30;22.10;99.90
37002;DHT22;22913;51.910;8.374;2023-06-26T05:11:16;22.10;99.90
37002;DHT22;22913;51.910;8.374;2023-06-26T05:14:02;22.20;99.90
37002;DHT22;22913;51.910;8.374;2023-06-26T05:16:47;22.20;99.90
37002;DHT22;22913;51.910;8.374;2023-06-26T05:19:35;22.30;99.90
37002;DHT22;22913;51.910;8.374;2023-06-26T05:22:21;22.30;99.90
37002;DHT22;22913;51.910;8.374;2023-06-26T05:25:09;22.40;99.90
37002;DHT22;22913;51.910;8.374;2023-06-26T05:27:56;22.40;99.90
37002;DHT22;22913;51.910;8.374;2023-06-26T05:30:42;22.50;99.90
37002;DHT22;22913;51.910;8.374;2023-06-26T05:33:28;22.60;99.90
37002;DHT22;22913;51.910;8.374;2023-06-26T05:36:16;22.70;99.90
37002;DHT22;22913;51.910;8.374;2023-06-26T05:39:02;22.80;99.90
37002;DHT22;22913;51.910;8.374;2023-06-26T05:41:48;22.90;99.90
37002;DHT22;22913;51.910;8.374;2023-06-26T05:44:34;23.00;99.90
37002;DHT22;22913;51.910;8.374;2023-06-26T05:47:20;23.10;99.90
37002;DHT22;22913;51.910;8.374;2023-06-26T05:50:07;23.20;99.90
37002;DHT22;22913;51.910;8.374;2023-06-26T05:52:55;23.30;99.90
37002;DHT22;22913;51.910;8.374;2023-06-26T05:55:42;23.50;99.90
37002;DHT22;22913;51.910;8.374;2023-06-26T05:58:28;23.40;99.90
37002;DHT22;22913;51.910;8.374;2023-06-26T06:01:14;23.30;99.90
37002;DHT22;22913;51.910;8.374;2023-06-26T06:04:00;23.30;99.90
37002;DHT22;22913;51.910;8.374;2023-06-26T06:06:46;23.40;99.90
37002;DHT22;22913;51.910;8.374;2023-06-26T06:09:33;23.40;99.90
37002;DHT22;22913;51.910;8.374;2023-06-26T06:12:18;23.40;99.90
37002;DHT22;22913;51.910;8.374;2023-06-26T06:15:04;23.40;99.90
37002;DHT22;22913;51.910;8.374;2023-06-26T06:17:50;23.40;99.90
37002;DHT22;22913;51.910;8.374;2023-06-26T06:20:35;23.30;99.90
37002;DHT22;22913;51.910;8.374;2023-06-26T06:23:21;23.40;99.90
37002;DHT22;22913;51.910;8.374;2023-06-26T06:26:08;23.30;99.90
37002;DHT22;22913;51.910;8.374;2023-06-26T06:28:54;23.20;99.90
37002;DHT22;22913;51.910;8.374;2023-06-26T06:31:40;23.40;99.90
37002;DHT22;22913;51.910;8.374;2023-06-26T06:34:25;23.40;99.90
37002;DHT22;22913;51.910;8.374;2023-06-26T06:37:11;23.50;99.90
37002;DHT22;22913;51.910;8.374;2023-06-26T06:39:56;23.60;99.90
37002;DHT22;22913;51.910;8.374;2023-06-26T06:42:44;23.50;99.90
37002;DHT22;22913;51.910;8.374;2023-06-26T06:45:30;23.50;99.90
37002;DHT22;22913;51.910;8.374;2023-06-26T06:48:16;23.40;99.90
37002;DHT22;22913;51.910;8.374;2023-06-26T06:51:01;23.30;99.90
37002;DHT22;22913;51.910;8.374;2023-06-26T06:53:47;23.30;99.90
37002;DHT22;22913;51.910;8.374;2023-06-26T06:56:33;23.40;99.90
37002;DHT22;22913;51.910;8.374;2023-06-26T06:59:20;23.50;99.90
37002;DHT22;22913;51.910;8.374;2023-06-26T07:02:06;23.60;99.90
37002;DHT22;22913;51.910;8.374;2023-06-26T07:04:51;23.60;99.90
37002;DHT22;22913;51.910;8.374;2023-06-26T07:07:37;23.60;99.90
37002;DHT22;22913;51.910;8.374;2023-06-26T07:10:23;23.60;99.90
37002;DHT22;22913;51.910;8.374;2023-06-26T07:13:09;23.70;99.90
37002;DHT22;22913;51.910;8.374;2023-06-26T07:15:56;23.70;99.90
37002;DHT22;22913;51.910;8.374;2023-06-26T07:18:41;23.80;99.90
37002;DHT22;22913;51.910;8.374;2023-06-26T07:21:27;23.90;99.90
37002;DHT22;22913;51.910;8.374;2023-06-26T07:24:13;23.80;99.90
37002;DHT22;22913;51.910;8.374;2023-06-26T07:26:59;23.90;99.90
37002;DHT22;22913;51.910;8.374;2023-06-26T07:29:46;23.90;99.90
37002;DHT22;22913;51.910;8.374;2023-06-26T07:32:33;24.00;99.90
37002;DHT22;22913;51.910;8.374;2023-06-26T07:35:18;24.10;99.90
37002;DHT22;22913;51.910;8.374;2023-06-26T07:38:04;24.10;99.90
37002;DHT22;22913;51.910;8.374;2023-06-26T07:40:50;24.10;99.90
37002;DHT22;22913;51.910;8.374;2023-06-26T07:43:35;24.20;99.90
37002;DHT22;22913;51.910;8.374;2023-06-26T07:46:21;24.30;99.90
37002;DHT22;22913;51.910;8.374;2023-06-26T07:49:08;24.30;99.90
37002;DHT22;22913;51.910;8.374;2023-06-26T07:51:54;24.40;99.90
37002;DHT22;22913;51.910;8.374;2023-06-26T07:54:39;24.40;99.90
37002;DHT22;22913;51.910;8.374;2023-06-26T07:57:25;24.40;99.90
37002;DHT22;22913;51.910;8.374;2023-06-26T08:00:11;24.60;99.90
37002;DHT22;22913;51.910;8.374;2023-06-26T08:02:57;24.60;99.90
37002;DHT22;22913;51.910;8.374;2023-06-26T08:05:44;24.60;99.90
37002;DHT22;22913;51.910;8.374;2023-06-26T08:08:29;24.60;99.90
37002;DHT22;22913;51.910;8.374;2023-06-26T08:11:15;24.40;99.90
37002;DHT22;22913;51.910;8.374;2023-06-26T08:14:01;24.40;99.90
37002;DHT22;22913;51.910;8.374;2023-06-26T08:16:47;24.20;99.90
37002;DHT22;22913;51.910;8.374;2023-06-26T08:19:32;24.10;99.90
37002;DHT22;22913;51.910;8.374;2023-06-26T08:22:19;24.10;99.90
37002;DHT22;22913;51.910;8.374;2023-06-26T08:25:05;24.00;99.90
37002;DHT22;22913;51.910;8.374;2023-06-26T08:27:51;23.90;99.90
37002;DHT22;22913;51.910;8.374;2023-06-26T08:30:38;23.90;99.90
37002;DHT22;22913;51.910;8.374;2023-06-26T08:33:24;23.90;99.90
37002;DHT22;22913;51.910;8.374;2023-06-26T08:36:09;24.10;99.90
37002;DHT22;22913;51.910;8.374;2023-06-26T08:38:56;24.20;99.90
37002;DHT22;22913;51.910;8.374;2023-06-26T08:41:42;24.20;99.90
37002;DHT22;22913;51.910;8.374;2023-06-26T08:44:28;24.20;99.90
37002;DHT22;22913;51.910;8.374;2023-06-26T08:47:14;24.10;99.90
37002;DHT22;22913;51.910;8.374;2023-06-26T08:50:06;24.20;99.90
37002;DHT22;22913;51.910;8.374;2023-06-26T08:52:56;24.30;99.90
37002;DHT22;22913;51.910;8.374;2023-06-26T08:55:44;24.40;99.90
37002;DHT22;22913;51.910;8.374;2023-06-26T08:58:30;24.60;99.90
37002;DHT22;22913;51.910;8.374;2023-06-26T09:01:16;24.70;99.90
37002;DHT22;22913;51.910;8.374;2023-06-26T09:04:03;24.80;99.90
37002;DHT22;22913;51.910;8.374;2023-06-26T09:06:49;24.70;99.90
37002;DHT22;22913;51.910;8.374;2023-06-26T09:09:34;24.70;99.90
37002;DHT22;22913;51.910;8.374;2023-06-26T09:12:22;24.70;99.90
37002;DHT22;22913;51.910;8.374;2023-06-26T09:15:07;24.80;99.90
37002;DHT22;22913;51.910;8.374;2023-06-26T09:17:56;24.80;99.90
37002;DHT22;22913;51.910;8.374;2023-06-26T09:20:42;24.90;99.90
37002;DHT22;22913;51.910;8.374;2023-06-26T09:23:28;24.80;99.90
37002;DHT22;22913;51.910;8.374;2023-06-26T09:26:14;24.90;99.90
37002;DHT22;22913;51.910;8.374;2023-06-26T09:29:01;24.90;99.90
37002;DHT22;22913;51.910;8.374;2023-06-26T09:31:47;25.00;99.90
37002;DHT22;22913;51.910;8.374;2023-06-26T09:34:33;25.00;99.90
37002;DHT22;22913;51.910;8.374;2023-06-26T09:37:19;25.00;99.90
37002;DHT22;22913;51.910;8.374;2023-06-26T09:40:05;25.10;99.90
37002;DHT22;22913;51.910;8.374;2023-06-26T09:42:51;25.00;99.90
37002;DHT22;22913;51.910;8.374;2023-06-26T09:45:39;25.10;99.90
37002;DHT22;22913;51.910;8.374;2023-06-26T09:48:26;25.20;99.90
37002;DHT22;22913;51.910;8.374;2023-06-26T09:51:12;25.30;99.90
37002;DHT22;22913;51.910;8.374;2023-06-26T09:53:58;25.40;99.90
37002;DHT22;22913;51.910;8.374;2023-06-26T09:56:43;25.40;99.90
37002;DHT22;22913;51.910;8.374;2023-06-26T09:59:30;25.50;99.90
37002;DHT22;22913;51.910;8.374;2023-06-26T10:02:17;25.50;99.90
37002;DHT22;22913;51.910;8.374;2023-06-26T10:05:02;25.60;99.90
37002;DHT22;22913;51.910;8.374;2023-06-26T10:07:49;25.60;99.90
37002;DHT22;22913;51.910;8.374;2023-06-26T10:10:36;25.70;99.90
37002;DHT22;22913;51.910;8.374;2023-06-26T10:13:31;25.70;99.90
37002;DHT22;22913;51.910;8.374;2023-06-26T10:16:26;25.70;99.90
37002;DHT22;22913;51.910;8.374;2023-06-26T10:19:18;25.70;99.90
37002;DHT22;22913;51.910;8.374;2023-06-26T10:22:09;25.70;99.90
37002;DHT22;22913;51.910;8.374;2023-06-26T10:24:58;25.80;99.90
37002;DHT22;22913;51.910;8.374;2023-06-26T10:27:49;25.80;99.90
37002;DHT22;22913;51.910;8.374;2023-06-26T10:30:36;25.70;99.90
37002;DHT22;22913;51.910;8.374;2023-06-26T10:33:23;25.90;99.90
37002;DHT22;22913;51.910;8.374;2023-06-26T10:36:15;26.20;99.90
37002;DHT22;22913;51.910;8.374;2023-06-26T10:39:03;26.40;99.90
37002;DHT22;22913;51.910;8.374;2023-06-26T10:41:54;26.30;99.90
37002;DHT22;22913;51.910;8.374;2023-06-26T10:44:43;26.10;99.90
37002;DHT22;22913;51.910;8.374;2023-06-26T10:47:29;25.80;99.90
37002;DHT22;22913;51.910;8.374;2023-06-26T10:50:20;25.70;99.90
37002;DHT22;22913;51.910;8.374;2023-06-26T10:53:13;25.60;99.90
37002;DHT22;22913;51.910;8.374;2023-06-26T10:56:01;25.70;99.90
37002;DHT22;22913;51.910;8.374;2023-06-26T10:58:47;25.70;99.90
37002;DHT22;22913;51.910;8.374;2023-06-26T11:01:40;25.90;99.90
37002;DHT22;22913;51.910;8.374;2023-06-26T11:04:39;26.00;99.90
37002;DHT22;22913;51.910;8.374;2023-06-26T11:07:26;26.40;99.90
37002;DHT22;22913;51.910;8.374;2023-06-26T11:10:16;26.70;99.90
37002;DHT22;22913;51.910;8.374;2023-06-26T11:13:04;26.90;99.90
37002;DHT22;22913;51.910;8.374;2023-06-26T11:15:50;26.80;99.90
37002;DHT22;22913;51.910;8.374;2023-06-26T11:18:36;26.70;99.90
37002;DHT22;22913;51.910;8.374;2023-06-26T11:21:22;26.40;99.90
37002;DHT22;22913;51.910;8.374;2023-06-26T11:24:11;26.40;99.90
37002;DHT22;22913;51.910;8.374;2023-06-26T11:27:02;26.50;99.90
37002;DHT22;22913;51.910;8.374;2023-06-26T11:29:48;26.80;99.90
37002;DHT22;22913;51.910;8.374;2023-06-26T11:32:34;27.20;99.90
37002;DHT22;22913;51.910;8.374;2023-06-26T11:35:22;27.40;99.90
37002;DHT22;22913;51.910;8.374;2023-06-26T11:38:13;27.70;99.90
37002;DHT22;22913;51.910;8.374;2023-06-26T11:41:00;27.80;99.90
37002;DHT22;22913;51.910;8.374;2023-06-26T11:43:47;28.00;99.90
37002;DHT22;22913;51.910;8.374;2023-06-26T11:46:34;28.10;99.90
37002;DHT22;22913;51.910;8.374;2023-06-26T11:49:21;27.90;99.90
37002;DHT22;22913;51.910;8.374;2023-06-26T11:52:10;28.00;99.90
37002;DHT22;22913;51.910;8.374;2023-06-26T11:54:55;28.20;99.90
37002;DHT22;22913;51.910;8.374;2023-06-26T11:57:41;28.40;99.90
37002;DHT22;22913;51.910;8.374;2023-06-26T12:00:28;28.70;99.90
37002;DHT22;22913;51.910;8.374;2023-06-26T12:03:13;28.80;99.90
37002;DHT22;22913;51.910;8.374;2023-06-26T12:06:00;28.90;99.90
37002;DHT22;22913;51.910;8.374;2023-06-26T12:08:50;29.00;99.90
37002;DHT22;22913;51.910;8.374;2023-06-26T12:11:37;29.00;99.90
37002;DHT22;22913;51.910;8.374;2023-06-26T12:14:24;29.00;99.90
37002;DHT22;22913;51.910;8.374;2023-06-26T12:17:13;29.10;99.90
37002;DHT22;22913;51.910;8.374;2023-06-26T12:19:59;29.20;99.90
37002;DHT22;22913;51.910;8.374;2023-06-26T12:22:46;29.40;99.90
37002;DHT22;22913;51.910;8.374;2023-06-26T12:25:32;29.60;99.90
37002;DHT22;22913;51.910;8.374;2023-06-26T12:28:18;29.60;99.90
37002;DHT22;22913;51.910;8.374;2023-06-26T12:31:14;29.70;99.90
37002;DHT22;22913;51.910;8.374;2023-06-26T12:34:01;29.90;99.90
37002;DHT22;22913;51.910;8.374;2023-06-26T12:36:48;30.00;99.90
37002;DHT22;22913;51.910;8.374;2023-06-26T12:39:45;30.00;99.90
37002;DHT22;22913;51.910;8.374;2023-06-26T12:42:33;29.50;99.90
37002;DHT22;22913;51.910;8.374;2023-06-26T12:45:19;29.50;99.90
37002;DHT22;22913;51.910;8.374;2023-06-26T12:48:10;29.30;99.90
37002;DHT22;22913;51.910;8.374;2023-06-26T12:50:57;29.30;99.90
37002;DHT22;22913;51.910;8.374;2023-06-26T12:53:43;29.30;99.90
37002;DHT22;22913;51.910;8.374;2023-06-26T12:56:28;29.10;99.90
37002;DHT22;22913;51.910;8.374;2023-06-26T12:59:14;29.00;99.90
37002;DHT22;22913;51.910;8.374;2023-06-26T13:02:00;28.70;99.90
37002;DHT22;22913;51.910;8.374;2023-06-26T13:04:45;28.60;99.90
37002;DHT22;22913;51.910;8.374;2023-06-26T13:07:32;28.70;99.90
37002;DHT22;22913;51.910;8.374;2023-06-26T13:10:18;29.00;99.90
37002;DHT22;22913;51.910;8.374;2023-06-26T13:13:04;29.30;99.90
37002;DHT22;22913;51.910;8.374;2023-06-26T13:15:50;29.70;99.90
37002;DHT22;22913;51.910;8.374;2023-06-26T13:18:35;30.00;99.90
37002;DHT22;22913;51.910;8.374;2023-06-26T13:21:21;30.30;99.90
37002;DHT22;22913;51.910;8.374;2023-06-26T13:24:08;30.60;99.90
37002;DHT22;22913;51.910;8.374;2023-06-26T13:26:54;30.10;99.90
37002;DHT22;22913;51.910;8.374;2023-06-26T13:29:40;29.80;99.90
37002;DHT22;22913;51.910;8.374;2023-06-26T13:32:26;29.00;99.90
37002;DHT22;22913;51.910;8.374;2023-06-26T13:35:12;28.80;99.90
37002;DHT22;22913;51.910;8.374;2023-06-26T13:37:57;28.70;99.90
37002;DHT22;22913;51.910;8.374;2023-06-26T13:40:44;28.30;99.90
37002;DHT22;22913;51.910;8.374;2023-06-26T13:43:30;28.40;99.90
37002;DHT22;22913;51.910;8.374;2023-06-26T13:46:16;28.40;99.90
37002;DHT22;22913;51.910;8.374;2023-06-26T13:49:02;28.50;99.90
37002;DHT22;22913;51.910;8.374;2023-06-26T13:51:48;28.50;99.90
37002;DHT22;22913;51.910;8.374;2023-06-26T13:54:34;28.30;99.90
37002;DHT22;22913;51.910;8.374;2023-06-26T13:57:21;28.40;99.90
37002;DHT22;22913;51.910;8.374;2023-06-26T14:00:08;28.70;99.90
37002;DHT22;22913;51.910;8.374;2023-06-26T14:02:56;29.00;99.90
37002;DHT22;22913;51.910;8.374;2023-06-26T14:05:42;28.90;99.90
37002;DHT22;22913;51.910;8.374;2023-06-26T14:08:27;28.70;99.90
37002;DHT22;22913;51.910;8.374;2023-06-26T14:11:13;28.90;99.90
37002;DHT22;22913;51.910;8.374;2023-06-26T14:14:01;29.40;99.90
37002;DHT22;22913;51.910;8.374;2023-06-26T14:16:47;29.70;99.90
37002;DHT22;22913;51.910;8.374;2023-06-26T14:19:34;29.90;99.90
37002;DHT22;22913;51.910;8.374;2023-06-26T14:22:19;29.80;99.90
37002;DHT22;22913;51.910;8.374;2023-06-26T14:25:06;29.60;99.90
37002;DHT22;22913;51.910;8.374;2023-06-26T14:27:51;29.70;99.90
37002;DHT22;22913;51.910;8.374;2023-06-26T14:30:39;29.80;99.90
37002;DHT22;22913;51.910;8.374;2023-06-26T14:33:24;29.30;99.90
37002;DHT22;22913;51.910;8.374;2023-06-26T14:36:10;29.10;99.90
37002;DHT22;22913;51.910;8.374;2023-06-26T14:38:56;29.10;99.90
37002;DHT22;22913;51.910;8.374;2023-06-26T14:41:42;28.90;99.90
37002;DHT22;22913;51.910;8.374;2023-06-26T14:44:27;28.60;99.90
37002;DHT22;22913;51.910;8.374;2023-06-26T14:47:14;28.50;99.90
37002;DHT22;22913;51.910;8.374;2023-06-26T14:50:00;28.70;99.90
37002;DHT22;22913;51.910;8.374;2023-06-26T14:52:46;28.90;99.90
37002;DHT22;22913;51.910;8.374;2023-06-26T14:55:32;29.10;99.90
37002;DHT22;22913;51.910;8.374;2023-06-26T14:58:17;29.20;99.90
37002;DHT22;22913;51.910;8.374;2023-06-26T15:01:03;29.20;99.90
37002;DHT22;22913;51.910;8.374;2023-06-26T15:03:50;29.60;99.90
37002;DHT22;22913;51.910;8.374;2023-06-26T15:06:35;29.70;99.10
37002;DHT22;22913;51.910;8.374;2023-06-26T15:09:22;29.90;98.20
37002;DHT22;22913;51.910;8.374;2023-06-26T15:12:08;30.00;97.70
37002;DHT22;22913;51.910;8.374;2023-06-26T15:14:53;30.40;97.20
37002;DHT22;22913;51.910;8.374;2023-06-26T15:17:39;30.70;97.00
37002;DHT22;22913;51.910;8.374;2023-06-26T15:20:26;30.70;96.50
37002;DHT22;22913;51.910;8.374;2023-06-26T15:23:12;30.40;95.90
37002;DHT22;22913;51.910;8.374;2023-06-26T15:25:58;30.30;94.90
37002;DHT22;22913;51.910;8.374;2023-06-26T15:28:43;30.10;94.60
37002;DHT22;22913;51.910;8.374;2023-06-26T15:31:30;29.80;95.20
37002;DHT22;22913;51.910;8.374;2023-06-26T15:34:16;29.40;95.70
37002;DHT22;22913;51.910;8.374;2023-06-26T15:37:03;29.00;96.50
37002;DHT22;22913;51.910;8.374;2023-06-26T15:39:49;28.40;96.50
37002;DHT22;22913;51.910;8.374;2023-06-26T15:42:44;28.30;96.80
37002;DHT22;22913;51.910;8.374;2023-06-26T15:45:30;28.20;97.30
37002;DHT22;22913;51.910;8.374;2023-06-26T15:48:16;28.10;97.80
37002;DHT22;22913;51.910;8.374;2023-06-26T15:51:02;28.30;98.30
37002;DHT22;22913;51.910;8.374;2023-06-26T15:53:49;28.50;98.00
37002;DHT22;22913;51.910;8.374;2023-06-26T15:56:34;28.40;98.40
37002;DHT22;22913;51.910;8.374;2023-06-26T15:59:20;28.50;98.90
37002;DHT22;22913;51.910;8.374;2023-06-26T16:02:06;28.70;99.20
37002;DHT22;22913;51.910;8.374;2023-06-26T16:04:51;28.70;99.40
37002;DHT22;22913;51.910;8.374;2023-06-26T16:07:37;28.40;98.60
37002;DHT22;22913;51.910;8.374;2023-06-26T16:10:24;28.40;98.60
37002;DHT22;22913;51.910;8.374;2023-06-26T16:13:10;28.20;97.80
37002;DHT22;22913;51.910;8.374;2023-06-26T16:15:56;28.30;98.10
37002;DHT22;22913;51.910;8.374;2023-06-26T16:18:41;28.00;98.20
37002;DHT22;22913;51.910;8.374;2023-06-26T16:21:28;27.70;98.10
37002;DHT22;22913;51.910;8.374;2023-06-26T16:24:13;27.40;98.30
37002;DHT22;22913;51.910;8.374;2023-06-26T16:27:00;27.20;97.70
37002;DHT22;22913;51.910;8.374;2023-06-26T16:29:46;26.90;98.20
37002;DHT22;22913;51.910;8.374;2023-06-26T16:32:32;26.80;97.90
37002;DHT22;22913;51.910;8.374;2023-06-26T16:35:18;26.60;98.20
37002;DHT22;22913;51.910;8.374;2023-06-26T16:38:05;26.50;98.20
37002;DHT22;22913;51.910;8.374;2023-06-26T16:40:51;26.30;97.90
37002;DHT22;22913;51.910;8.374;2023-06-26T16:43:39;26.10;98.80
37002;DHT22;22913;51.910;8.374;2023-06-26T16:46:24;26.00;99.00
37002;DHT22;22913;51.910;8.374;2023-06-26T16:49:10;25.90;99.70
37002;DHT22;22913;51.910;8.374;2023-06-26T16:51:56;25.70;99.90
37002;DHT22;22913;51.910;8.374;2023-06-26T16:54:42;25.70;99.90
37002;DHT22;22913;51.910;8.374;2023-06-26T16:57:28;25.50;99.90
37002;DHT22;22913;51.910;8.374;2023-06-26T17:00:16;25.40;99.90
37002;DHT22;22913;51.910;8.374;2023-06-26T17:03:01;25.30;99.90
37002;DHT22;22913;51.910;8.374;2023-06-26T17:05:47;25.20;99.90
37002;DHT22;22913;51.910;8.374;2023-06-26T17:08:33;25.30;99.90
37002;DHT22;22913;51.910;8.374;2023-06-26T17:11:19;25.10;99.90
37002;DHT22;22913;51.910;8.374;2023-06-26T17:14:04;25.00;99.90
37002;DHT22;22913;51.910;8.374;2023-06-26T17:16:51;25.00;99.90
37002;DHT22;22913;51.910;8.374;2023-06-26T17:19:37;25.20;99.90
37002;DHT22;22913;51.910;8.374;2023-06-26T17:22:23;25.30;99.90
37002;DHT22;22913;51.910;8.374;2023-06-26T17:25:09;25.20;99.90
37002;DHT22;22913;51.910;8.374;2023-06-26T17:27:56;25.20;99.90
37002;DHT22;22913;51.910;8.374;2023-06-26T17:30:41;25.10;99.90